sensor_id;sensor_type;location;lat;lon;timestamp;pressure;altitude;pressure_sealevel;temperature;humidity
11888;BME280;6003;42.756;23.130;2023-04-26T00:00:02;154482.91;;;8.05;100.00
11888;BME280;6003;42.756;23.130;2023-04-26T00:02:34;154464.47;;;7.98;100.00
11888;BME280;6003;42.756;23.130;2023-04-26T00:05:01;154459.19;;;7.96;100.00
11888;BME280;6003;42.756;23.130;2023-04-26T00:07:28;154443.38;;;7.90;100.00
11888;BME280;6003;42.756;23.130;2023-04-26T00:09:55;154423.56;;;7.82;100.00
11888;BME280;6003;42.756;23.130;2023-04-26T00:12:22;154403.81;;;7.75;100.00
11888;BME280;6003;42.756;23.130;2023-04-26T00:14:49;154401.16;;;7.74;100.00
11888;BME280;6003;42.756;23.130;2023-04-26T00:17:16;154362.91;;;7.59;100.00
11888;BME280;6003;42.756;23.130;2023-04-26T00:19:44;154326.00;;;7.44;100.00
11888;BME280;6003;42.756;23.130;2023-04-26T00:22:11;154306.25;;;7.37;100.00
11888;BME280;6003;42.756;23.130;2023-04-26T00:24:38;154300.97;;;7.35;100.00
11888;BME280;6003;42.756;23.130;2023-04-26T00:27:04;154277.25;;;7.26;100.00
11888;BME280;6003;42.756;23.130;2023-04-26T00:29:34;154246.94;;;7.14;100.00
11888;BME280;6003;42.756;23.130;2023-04-26T00:32:01;154237.66;;;7.10;100.00
11888;BME280;6003;42.756;23.130;2023-04-26T00:34:31;154203.44;;;6.97;100.00
11888;BME280;6003;42.756;23.130;2023-04-26T00:37:01;154198.13;;;6.95;100.00
11888;BME280;6003;42.756;23.130;2023-04-26T00:39:28;154177.03;;;6.87;100.00
11888;BME280;6003;42.756;23.130;2023-04-26T00:41:55;154177.03;;;6.87;100.00
11888;BME280;6003;42.756;23.130;2023-04-26T00:44:22;154187.63;;;6.91;100.00
11888;BME280;6003;42.756;23.130;2023-04-26T00:46:51;154181.03;;;6.88;100.00
11888;BME280;6003;42.756;23.130;2023-04-26T00:49:20;154155.94;;;6.78;100.00
11888;BME280;6003;42.756;23.130;2023-04-26T00:51:49;154148.06;;;6.75;100.00
11888;BME280;6003;42.756;23.130;2023-04-26T00:54:18;154121.72;;;6.65;100.00
11888;BME280;6003;42.756;23.130;2023-04-26T00:56:45;154119.06;;;6.64;100.00
11888;BME280;6003;42.756;23.130;2023-04-26T00:59:12;154109.84;;;6.61;100.00
11888;BME280;6003;42.756;23.130;2023-04-26T01:01:39;154124.34;;;6.66;100.00
11888;BME280;6003;42.756;23.130;2023-04-26T01:04:06;154112.47;;;6.62;100.00
11888;BME280;6003;42.756;23.130;2023-04-26T01:06:36;154087.44;;;6.52;100.00
11888;BME280;6003;42.756;23.130;2023-04-26T01:09:04;154086.13;;;6.51;100.00
11888;BME280;6003;42.756;23.130;2023-04-26T01:11:34;154103.25;;;6.58;100.00
11888;BME280;6003;42.756;23.130;2023-04-26T01:14:02;154091.44;;;6.53;100.00
11888;BME280;6003;42.756;23.130;2023-04-26T01:16:29;154103.25;;;6.58;100.00
11888;BME280;6003;42.756;23.130;2023-04-26T01:18:56;154087.44;;;6.52;100.00
11888;BME280;6003;42.756;23.130;2023-04-26T01:21:23;154079.53;;;6.49;100.00
11888;BME280;6003;42.756;23.130;2023-04-26T01:23:52;154079.53;;;6.49;100.00
11888;BME280;6003;42.756;23.130;2023-04-26T01:26:18;154078.25;;;6.48;100.00
11888;BME280;6003;42.756;23.130;2023-04-26T01:28:45;154069.03;;;6.45;100.00
11888;BME280;6003;42.756;23.130;2023-04-26T01:31:13;154063.75;;;6.43;100.00
11888;BME280;6003;42.756;23.130;2023-04-26T01:33:40;154084.84;;;6.51;100.00
11888;BME280;6003;42.756;23.130;2023-04-26T01:36:08;154086.13;;;6.51;100.00
11888;BME280;6003;42.756;23.130;2023-04-26T01:38:35;154105.91;;;6.59;100.00
11888;BME280;6003;42.756;23.130;2023-04-26T01:41:03;154129.63;;;6.68;100.00
11888;BME280;6003;42.756;23.130;2023-04-26T01:43:30;154134.91;;;6.70;100.00
11888;BME280;6003;42.756;23.130;2023-04-26T01:45:57;154148.06;;;6.75;100.00
11888;BME280;6003;42.756;23.130;2023-04-26T01:48:24;154150.72;;;6.76;100.00
11888;BME280;6003;42.756;23.130;2023-04-26T01:50:50;154184.94;;;6.90;100.00
11888;BME280;6003;42.756;23.130;2023-04-26T01:53:17;154202.13;;;6.96;100.00
11888;BME280;6003;42.756;23.130;2023-04-26T01:55:45;154211.34;;;7.00;100.00
11888;BME280;6003;42.756;23.130;2023-04-26T01:58:13;154223.16;;;7.05;100.00
11888;BME280;6003;42.756;23.130;2023-04-26T02:00:41;154224.53;;;7.05;100.00
11888;BME280;6003;42.756;23.130;2023-04-26T02:03:07;154242.94;;;7.12;100.00
11888;BME280;6003;42.756;23.130;2023-04-26T02:05:34;154269.34;;;7.22;100.00
11888;BME280;6003;42.756;23.130;2023-04-26T02:08:01;154285.16;;;7.29;100.00
11888;BME280;6003;42.756;23.130;2023-04-26T02:10:28;154298.34;;;7.34;100.00
11888;BME280;6003;42.756;23.130;2023-04-26T02:12:55;154308.88;;;7.38;100.00
11888;BME280;6003;42.756;23.130;2023-04-26T02:15:23;154323.38;;;7.43;100.00
11888;BME280;6003;42.756;23.130;2023-04-26T02:17:50;154340.50;;;7.50;100.00
11888;BME280;6003;42.756;23.130;2023-04-26T02:20:18;154344.47;;;7.52;100.00
11888;BME280;6003;42.756;23.130;2023-04-26T02:22:45;154349.72;;;7.54;100.00
11888;BME280;6003;42.756;23.130;2023-04-26T02:25:11;154353.69;;;7.55;100.00
11888;BME280;6003;42.756;23.130;2023-04-26T02:27:38;154361.59;;;7.58;100.00
11888;BME280;6003;42.756;23.130;2023-04-26T02:30:07;154343.16;;;7.51;100.00
11888;BME280;6003;42.756;23.130;2023-04-26T02:32:35;154337.88;;;7.49;100.00
11888;BME280;6003;42.756;23.130;2023-04-26T02:35:02;154339.19;;;7.50;100.00
11888;BME280;6003;42.756;23.130;2023-04-26T02:37:31;154327.31;;;7.45;100.00
11888;BME280;6003;42.756;23.130;2023-04-26T02:39:58;154315.47;;;7.40;100.00
11888;BME280;6003;42.756;23.130;2023-04-26T02:42:25;154324.69;;;7.44;100.00
11888;BME280;6003;42.756;23.130;2023-04-26T02:44:52;154324.69;;;7.44;100.00
11888;BME280;6003;42.756;23.130;2023-04-26T02:47:18;154335.25;;;7.48;100.00
11888;BME280;6003;42.756;23.130;2023-04-26T02:49:47;154335.25;;;7.48;100.00
11888;BME280;6003;42.756;23.130;2023-04-26T02:52:13;154332.59;;;7.47;100.00
11888;BME280;6003;42.756;23.130;2023-04-26T02:54:40;154308.88;;;7.38;100.00
11888;BME280;6003;42.756;23.130;2023-04-26T02:57:07;154300.97;;;7.35;100.00
11888;BME280;6003;42.756;23.130;2023-04-26T02:59:34;154285.16;;;7.29;100.00
11888;BME280;6003;42.756;23.130;2023-04-26T03:02:01;154277.25;;;7.26;100.00
11888;BME280;6003;42.756;23.130;2023-04-26T03:04:30;154261.44;;;7.19;100.00
11888;BME280;6003;42.756;23.130;2023-04-26T03:06:59;154256.16;;;7.17;100.00
11888;BME280;6003;42.756;23.130;2023-04-26T03:09:26;154242.94;;;7.12;100.00
11888;BME280;6003;42.756;23.130;2023-04-26T03:11:53;154232.44;;;7.08;100.00
11888;BME280;6003;42.756;23.130;2023-04-26T03:14:20;154212.63;;;7.00;100.00
11888;BME280;6003;42.756;23.130;2023-04-26T03:16:47;154206.03;;;6.98;100.00
11888;BME280;6003;42.756;23.130;2023-04-26T03:19:14;154200.75;;;6.96;100.00
11888;BME280;6003;42.756;23.130;2023-04-26T03:21:40;154198.13;;;6.95;100.00
11888;BME280;6003;42.756;23.130;2023-04-26T03:24:09;154192.84;;;6.93;100.00
11888;BME280;6003;42.756;23.130;2023-04-26T03:26:36;154188.94;;;6.91;100.00
11888;BME280;6003;42.756;23.130;2023-04-26T03:29:04;154177.03;;;6.87;100.00
11888;BME280;6003;42.756;23.130;2023-04-26T03:31:31;154171.75;;;6.85;100.00
11888;BME280;6003;42.756;23.130;2023-04-26T03:33:57;154166.53;;;6.83;100.00
11888;BME280;6003;42.756;23.130;2023-04-26T03:36:24;154171.75;;;6.85;100.00
11888;BME280;6003;42.756;23.130;2023-04-26T03:38:52;154165.22;;;6.82;100.00
11888;BME280;6003;42.756;23.130;2023-04-26T03:41:21;154133.56;;;6.70;100.00
11888;BME280;6003;42.756;23.130;2023-04-26T03:43:47;154124.34;;;6.66;100.00
11888;BME280;6003;42.756;23.130;2023-04-26T03:46:14;154140.16;;;6.72;100.00
11888;BME280;6003;42.756;23.130;2023-04-26T03:48:41;154154.66;;;6.78;100.00
11888;BME280;6003;42.756;23.130;2023-04-26T03:51:08;154187.63;;;6.91;100.00
11888;BME280;6003;42.756;23.130;2023-04-26T03:53:35;154207.34;;;6.98;100.00
11888;BME280;6003;42.756;23.130;2023-04-26T03:56:02;154269.34;;;7.22;100.00
11888;BME280;6003;42.756;23.130;2023-04-26T03:58:30;154316.78;;;7.41;100.00
11888;BME280;6003;42.756;23.130;2023-04-26T04:00:57;154369.50;;;7.61;100.00
11888;BME280;6003;42.756;23.130;2023-04-26T04:03:25;154403.81;;;7.75;100.00
11888;BME280;6003;42.756;23.130;2023-04-26T04:05:51;154436.78;;;7.87;100.00
11888;BME280;6003;42.756;23.130;2023-04-26T04:08:18;154505.34;;;8.14;100.00
11888;BME280;6003;42.756;23.130;2023-04-26T04:10:45;154551.56;;;8.32;100.00
11888;BME280;6003;42.756;23.130;2023-04-26T04:13:12;154613.63;;;8.56;100.00
11888;BME280;6003;42.756;23.130;2023-04-26T04:15:49;154717.88;;;8.96;100.00
11888;BME280;6003;42.756;23.130;2023-04-26T04:18:16;154812.94;;;9.33;100.00
11888;BME280;6003;42.756;23.130;2023-04-26T04:20:43;154915.97;;;9.73;100.00
11888;BME280;6003;42.756;23.130;2023-04-26T04:23:10;155021.66;;;10.14;100.00
11888;BME280;6003;42.756;23.130;2023-04-26T04:25:37;155095.72;;;10.43;100.00
11888;BME280;6003;42.756;23.130;2023-04-26T04:28:04;155173.69;;;10.73;100.00
11888;BME280;6003;42.756;23.130;2023-04-26T04:30:32;155241.09;;;10.99;99.83
11888;BME280;6003;42.756;23.130;2023-04-26T04:33:01;155341.63;;;11.38;98.30
11888;BME280;6003;42.756;23.130;2023-04-26T04:35:29;155407.78;;;11.63;97.28
11888;BME280;6003;42.756;23.130;2023-04-26T04:37:58;155532.22;;;12.11;96.87
11888;BME280;6003;42.756;23.130;2023-04-26T04:40:26;155604.97;;;12.39;94.66
11888;BME280;6003;42.756;23.130;2023-04-26T04:42:53;155721.50;;;12.84;93.06
11888;BME280;6003;42.756;23.130;2023-04-26T04:45:20;155783.72;;;13.08;92.04
11888;BME280;6003;42.756;23.130;2023-04-26T04:47:47;155916.22;;;13.60;89.43
11888;BME280;6003;42.756;23.130;2023-04-26T04:50:16;156046.13;;;14.10;87.27
11888;BME280;6003;42.756;23.130;2023-04-26T04:52:42;156108.41;;;14.34;85.23
11888;BME280;6003;42.756;23.130;2023-04-26T04:55:09;156097.78;;;14.30;85.04
11888;BME280;6003;42.756;23.130;2023-04-26T04:57:36;156015.59;;;13.98;84.51
11888;BME280;6003;42.756;23.130;2023-04-26T05:00:05;155873.81;;;13.43;86.46
11888;BME280;6003;42.756;23.130;2023-04-26T05:02:35;155783.72;;;13.08;87.48
11888;BME280;6003;42.756;23.130;2023-04-26T05:05:02;155705.59;;;12.78;88.70
11888;BME280;6003;42.756;23.130;2023-04-26T05:07:30;155627.47;;;12.48;90.52
11888;BME280;6003;42.756;23.130;2023-04-26T05:09:57;155608.97;;;12.41;91.41
11888;BME280;6003;42.756;23.130;2023-04-26T05:12:24;155627.47;;;12.48;91.49
11888;BME280;6003;42.756;23.130;2023-04-26T05:14:51;155622.22;;;12.46;91.83
11888;BME280;6003;42.756;23.130;2023-04-26T05:17:18;155614.28;;;12.43;91.20
11888;BME280;6003;42.756;23.130;2023-04-26T05:19:45;155647.34;;;12.56;91.32
11888;BME280;6003;42.756;23.130;2023-04-26T05:22:12;155679.09;;;12.68;90.94
11888;BME280;6003;42.756;23.130;2023-04-26T05:24:44;155688.41;;;12.72;90.71
11888;BME280;6003;42.756;23.130;2023-04-26T05:27:11;155603.66;;;12.39;89.67
11888;BME280;6003;42.756;23.130;2023-04-26T05:29:38;155608.97;;;12.41;89.24
11888;BME280;6003;42.756;23.130;2023-04-26T05:32:06;155595.72;;;12.36;89.86
11888;BME280;6003;42.756;23.130;2023-04-26T05:34:32;155611.59;;;12.42;90.11
11888;BME280;6003;42.756;23.130;2023-04-26T05:36:59;155673.84;;;12.66;89.64
11888;BME280;6003;42.756;23.130;2023-04-26T05:39:26;155696.34;;;12.75;88.11
11888;BME280;6003;42.756;23.130;2023-04-26T05:41:54;155847.38;;;13.33;86.36
11888;BME280;6003;42.756;23.130;2023-04-26T05:44:22;155905.66;;;13.56;82.99
11888;BME280;6003;42.756;23.130;2023-04-26T05:46:48;155864.56;;;13.40;84.78
11888;BME280;6003;42.756;23.130;2023-04-26T05:49:15;155785.06;;;13.09;85.88
11888;BME280;6003;42.756;23.130;2023-04-26T05:51:42;155751.94;;;12.96;86.26
11888;BME280;6003;42.756;23.130;2023-04-26T05:54:09;155751.94;;;12.96;86.08
11888;BME280;6003;42.756;23.130;2023-04-26T05:56:36;155653.97;;;12.58;85.84
11888;BME280;6003;42.756;23.130;2023-04-26T05:59:04;155614.28;;;12.43;87.35
11888;BME280;6003;42.756;23.130;2023-04-26T06:01:31;155541.47;;;12.15;89.09
11888;BME280;6003;42.756;23.130;2023-04-26T06:03:58;155514.97;;;12.05;89.69
11888;BME280;6003;42.756;23.130;2023-04-26T06:06:25;155452.75;;;11.81;90.69
11888;BME280;6003;42.756;23.130;2023-04-26T06:08:53;155362.81;;;11.46;91.27
11888;BME280;6003;42.756;23.130;2023-04-26T06:11:19;155278.13;;;11.13;91.85
11888;BME280;6003;42.756;23.130;2023-04-26T06:13:46;155250.41;;;11.02;93.72
11888;BME280;6003;42.756;23.130;2023-04-26T06:16:15;155242.47;;;10.99;94.42
11888;BME280;6003;42.756;23.130;2023-04-26T06:18:42;155220.00;;;10.91;95.01
11888;BME280;6003;42.756;23.130;2023-04-26T06:21:08;155182.97;;;10.76;95.86
11888;BME280;6003;42.756;23.130;2023-04-26T06:23:35;155185.59;;;10.77;96.43
11888;BME280;6003;42.756;23.130;2023-04-26T06:26:02;155198.81;;;10.82;97.93
11888;BME280;6003;42.756;23.130;2023-04-26T06:28:29;155217.31;;;10.90;98.08
11888;BME280;6003;42.756;23.130;2023-04-26T06:30:55;155140.66;;;10.60;95.89
11888;BME280;6003;42.756;23.130;2023-04-26T06:33:24;155159.13;;;10.67;97.44
11888;BME280;6003;42.756;23.130;2023-04-26T06:35:50;155175.03;;;10.73;97.68
11888;BME280;6003;42.756;23.130;2023-04-26T06:38:17;155180.28;;;10.75;98.63
11888;BME280;6003;42.756;23.130;2023-04-26T06:40:44;155177.66;;;10.74;98.26
11888;BME280;6003;42.756;23.130;2023-04-26T06:43:11;155190.91;;;10.79;97.83
11888;BME280;6003;42.756;23.130;2023-04-26T06:45:44;155212.06;;;10.88;96.63
11888;BME280;6003;42.756;23.130;2023-04-26T06:48:11;155238.47;;;10.98;98.26
11888;BME280;6003;42.756;23.130;2023-04-26T06:50:39;155284.75;;;11.16;97.23
11888;BME280;6003;42.756;23.130;2023-04-26T06:53:06;155295.34;;;11.20;95.38
11888;BME280;6003;42.756;23.130;2023-04-26T06:55:33;155366.75;;;11.47;95.81
11888;BME280;6003;42.756;23.130;2023-04-26T06:58:00;155407.78;;;11.63;94.19
11888;BME280;6003;42.756;23.130;2023-04-26T07:00:27;155376.03;;;11.51;93.01
11888;BME280;6003;42.756;23.130;2023-04-26T07:02:54;155427.63;;;11.71;92.93
11888;BME280;6003;42.756;23.130;2023-04-26T07:05:21;155373.34;;;11.50;88.80
11888;BME280;6003;42.756;23.130;2023-04-26T07:07:49;155399.84;;;11.60;90.44
11888;BME280;6003;42.756;23.130;2023-04-26T07:10:16;155299.28;;;11.21;88.58
11888;BME280;6003;42.756;23.130;2023-04-26T07:12:43;155284.75;;;11.16;89.10
11888;BME280;6003;42.756;23.130;2023-04-26T07:15:10;155315.16;;;11.27;89.08
11888;BME280;6003;42.756;23.130;2023-04-26T07:17:37;155320.47;;;11.29;87.95
11888;BME280;6003;42.756;23.130;2023-04-26T07:20:05;155339.00;;;11.37;88.58
11888;BME280;6003;42.756;23.130;2023-04-26T07:22:32;155287.41;;;11.17;85.86
11888;BME280;6003;42.756;23.130;2023-04-26T07:25:00;155297.97;;;11.21;88.36
11888;BME280;6003;42.756;23.130;2023-04-26T07:27:30;155305.91;;;11.24;87.26
11888;BME280;6003;42.756;23.130;2023-04-26T07:29:57;155313.84;;;11.27;87.61
11888;BME280;6003;42.756;23.130;2023-04-26T07:32:24;155342.94;;;11.38;86.79
11888;BME280;6003;42.756;23.130;2023-04-26T07:34:50;155320.47;;;11.29;87.16
11888;BME280;6003;42.756;23.130;2023-04-26T07:37:17;155311.22;;;11.26;85.24
11888;BME280;6003;42.756;23.130;2023-04-26T07:39:44;155317.84;;;11.28;86.63
11888;BME280;6003;42.756;23.130;2023-04-26T07:42:13;155312.53;;;11.26;84.27
11888;BME280;6003;42.756;23.130;2023-04-26T07:44:39;155270.19;;;11.10;85.03
11888;BME280;6003;42.756;23.130;2023-04-26T07:47:10;155263.56;;;11.07;83.80
11888;BME280;6003;42.756;23.130;2023-04-26T07:49:37;155315.16;;;11.27;86.89
11888;BME280;6003;42.756;23.130;2023-04-26T07:52:04;155382.59;;;11.53;85.59
11888;BME280;6003;42.756;23.130;2023-04-26T07:54:31;155432.88;;;11.73;86.13
11888;BME280;6003;42.756;23.130;2023-04-26T07:56:59;155382.59;;;11.53;83.26
11888;BME280;6003;42.756;23.130;2023-04-26T07:59:27;155333.69;;;11.35;82.11
11888;BME280;6003;42.756;23.130;2023-04-26T08:01:54;155360.13;;;11.45;83.49
11888;BME280;6003;42.756;23.130;2023-04-26T08:04:29;155432.88;;;11.73;84.17
11888;BME280;6003;42.756;23.130;2023-04-26T08:06:57;155508.34;;;12.02;82.41
11888;BME280;6003;42.756;23.130;2023-04-26T08:09:26;155571.91;;;12.27;82.49
11888;BME280;6003;42.756;23.130;2023-04-26T08:11:53;155622.22;;;12.46;80.81
11888;BME280;6003;42.756;23.130;2023-04-26T08:14:19;155571.91;;;12.27;79.66
11888;BME280;6003;42.756;23.130;2023-04-26T08:16:48;155561.28;;;12.23;78.68
11888;BME280;6003;42.756;23.130;2023-04-26T08:19:15;155571.91;;;12.27;79.99
11888;BME280;6003;42.756;23.130;2023-04-26T08:21:42;155565.28;;;12.24;80.07
11888;BME280;6003;42.756;23.130;2023-04-26T08:24:09;155549.41;;;12.18;80.85
11888;BME280;6003;42.756;23.130;2023-04-26T08:26:40;155627.47;;;12.48;78.97
11888;BME280;6003;42.756;23.130;2023-04-26T08:29:07;155669.84;;;12.64;78.99
11888;BME280;6003;42.756;23.130;2023-04-26T08:31:33;155689.72;;;12.72;77.83
11888;BME280;6003;42.756;23.130;2023-04-26T08:34:02;155709.56;;;12.80;77.07
11888;BME280;6003;42.756;23.130;2023-04-26T08:36:28;155744.00;;;12.93;78.02
11888;BME280;6003;42.756;23.130;2023-04-26T08:38:56;155709.56;;;12.80;77.51
11888;BME280;6003;42.756;23.130;2023-04-26T08:41:24;155734.75;;;12.90;77.24
11888;BME280;6003;42.756;23.130;2023-04-26T08:43:53;155754.56;;;12.97;74.82
11888;BME280;6003;42.756;23.130;2023-04-26T08:46:24;155709.56;;;12.80;76.60
11888;BME280;6003;42.756;23.130;2023-04-26T08:48:57;155770.50;;;13.03;76.60
11888;BME280;6003;42.756;23.130;2023-04-26T08:51:29;155730.75;;;12.88;74.63
11888;BME280;6003;42.756;23.130;2023-04-26T08:53:58;155708.25;;;12.79;75.57
11888;BME280;6003;42.756;23.130;2023-04-26T08:56:25;155709.56;;;12.80;75.05
11888;BME280;6003;42.756;23.130;2023-04-26T08:58:53;155708.25;;;12.79;74.83
11888;BME280;6003;42.756;23.130;2023-04-26T09:01:20;155771.81;;;13.04;78.20
11888;BME280;6003;42.756;23.130;2023-04-26T09:03:47;155781.06;;;13.07;74.40
11888;BME280;6003;42.756;23.130;2023-04-26T09:06:15;155860.63;;;13.38;76.35
11888;BME280;6003;42.756;23.130;2023-04-26T09:08:44;155850.00;;;13.34;73.18
11888;BME280;6003;42.756;23.130;2023-04-26T09:11:12;155836.72;;;13.29;74.16
11888;BME280;6003;42.756;23.130;2023-04-26T09:13:39;155877.81;;;13.45;73.61
11888;BME280;6003;42.756;23.130;2023-04-26T09:16:07;155884.44;;;13.47;73.16
11888;BME280;6003;42.756;23.130;2023-04-26T09:18:34;155920.22;;;13.61;72.78
11888;BME280;6003;42.756;23.130;2023-04-26T09:21:03;155950.69;;;13.73;71.78
11888;BME280;6003;42.756;23.130;2023-04-26T09:23:31;155962.59;;;13.77;73.08
11888;BME280;6003;42.756;23.130;2023-04-26T09:26:19;156009.03;;;13.95;69.93
11888;BME280;6003;42.756;23.130;2023-04-26T09:28:47;155892.41;;;13.50;69.69
11888;BME280;6003;42.756;23.130;2023-04-26T09:31:35;155945.38;;;13.71;74.31
11888;BME280;6003;42.756;23.130;2023-04-26T09:34:03;156026.22;;;14.02;68.78
11888;BME280;6003;42.756;23.130;2023-04-26T09:36:29;156067.28;;;14.18;68.29
11888;BME280;6003;42.756;23.130;2023-04-26T09:38:56;156083.19;;;14.24;68.39
11888;BME280;6003;42.756;23.130;2023-04-26T09:41:41;156056.72;;;14.14;66.31
11888;BME280;6003;42.756;23.130;2023-04-26T09:44:19;156104.41;;;14.32;68.51
11888;BME280;6003;42.756;23.130;2023-04-26T09:46:56;156138.91;;;14.45;70.46
11888;BME280;6003;42.756;23.130;2023-04-26T09:49:25;156227.78;;;14.80;70.53
11888;BME280;6003;42.756;23.130;2023-04-26T09:52:02;156226.47;;;14.79;66.18
11888;BME280;6003;42.756;23.130;2023-04-26T09:54:38;156215.84;;;14.75;66.04
11888;BME280;6003;42.756;23.130;2023-04-26T09:57:07;156215.84;;;14.75;66.72
11888;BME280;6003;42.756;23.130;2023-04-26T09:59:41;156258.28;;;14.92;66.07
11888;BME280;6003;42.756;23.130;2023-04-26T10:02:15;156203.94;;;14.71;64.74
11888;BME280;6003;42.756;23.130;2023-04-26T10:04:46;156206.56;;;14.72;64.91
11888;BME280;6003;42.756;23.130;2023-04-26T10:07:15;156229.09;;;14.80;65.84
11888;BME280;6003;42.756;23.130;2023-04-26T10:09:42;156195.97;;;14.68;64.92
11888;BME280;6003;42.756;23.130;2023-04-26T10:12:12;156221.16;;;14.77;65.40
11888;BME280;6003;42.756;23.130;2023-04-26T10:14:39;156295.41;;;15.06;64.20
11888;BME280;6003;42.756;23.130;2023-04-26T10:17:07;156258.28;;;14.92;64.87
11888;BME280;6003;42.756;23.130;2023-04-26T10:19:34;156133.56;;;14.43;61.59
11888;BME280;6003;42.756;23.130;2023-04-26T10:22:04;156221.16;;;14.77;65.97
11888;BME280;6003;42.756;23.130;2023-04-26T10:24:34;156252.97;;;14.89;63.36
11888;BME280;6003;42.756;23.130;2023-04-26T10:27:01;156298.06;;;15.07;64.26
11888;BME280;6003;42.756;23.130;2023-04-26T10:36:08;156340.50;;;15.23;63.76
11888;BME280;6003;42.756;23.130;2023-04-26T10:38:38;156364.38;;;15.32;61.38
11888;BME280;6003;42.756;23.130;2023-04-26T10:41:27;156292.78;;;15.05;62.03
11888;BME280;6003;42.756;23.130;2023-04-26T10:43:55;156225.16;;;14.79;64.64
11888;BME280;6003;42.756;23.130;2023-04-26T10:46:36;156270.25;;;14.96;63.47
11888;BME280;6003;42.756;23.130;2023-04-26T10:49:16;156276.81;;;14.99;60.61
11888;BME280;6003;42.756;23.130;2023-04-26T10:52:09;156295.41;;;15.06;61.95
11888;BME280;6003;42.756;23.130;2023-04-26T10:54:45;156210.56;;;14.73;60.69
11888;BME280;6003;42.756;23.130;2023-04-26T10:57:13;156209.19;;;14.73;60.77
11888;BME280;6003;42.756;23.130;2023-04-26T10:59:40;156207.88;;;14.72;61.53
11888;BME280;6003;42.756;23.130;2023-04-26T11:02:46;156259.59;;;14.92;62.74
11888;BME280;6003;42.756;23.130;2023-04-26T11:05:37;156237.06;;;14.83;60.31
11888;BME280;6003;42.756;23.130;2023-04-26T11:08:13;156144.22;;;14.48;58.83
11888;BME280;6003;42.756;23.130;2023-04-26T11:10:41;156125.63;;;14.40;62.38
11888;BME280;6003;42.756;23.130;2023-04-26T11:13:07;156130.94;;;14.42;63.88
11888;BME280;6003;42.756;23.130;2023-04-26T11:15:34;156030.19;;;14.04;63.58
11888;BME280;6003;42.756;23.130;2023-04-26T11:18:02;155974.53;;;13.82;63.99
11888;BME280;6003;42.756;23.130;2023-04-26T11:20:30;156006.34;;;13.94;64.99
11888;BME280;6003;42.756;23.130;2023-04-26T11:22:57;156006.34;;;13.94;63.01
11888;BME280;6003;42.756;23.130;2023-04-26T11:25:27;156024.91;;;14.02;63.33
11888;BME280;6003;42.756;23.130;2023-04-26T11:27:58;156007.66;;;13.95;63.12
11888;BME280;6003;42.756;23.130;2023-04-26T11:30:27;156011.66;;;13.96;65.90
11888;BME280;6003;42.756;23.130;2023-04-26T11:32:54;156104.41;;;14.32;66.63
11888;BME280;6003;42.756;23.130;2023-04-26T11:35:24;156231.75;;;14.81;63.10
11888;BME280;6003;42.756;23.130;2023-04-26T11:37:57;156255.66;;;14.91;62.71
11888;BME280;6003;42.756;23.130;2023-04-26T11:40:29;156259.59;;;14.92;63.21
11888;BME280;6003;42.756;23.130;2023-04-26T11:43:00;156323.28;;;15.17;60.65
11888;BME280;6003;42.756;23.130;2023-04-26T11:45:27;156353.78;;;15.28;60.96
11888;BME280;6003;42.756;23.130;2023-04-26T11:47:55;156327.25;;;15.18;61.83
11888;BME280;6003;42.756;23.130;2023-04-26T11:50:23;156271.56;;;14.97;59.95
11888;BME280;6003;42.756;23.130;2023-04-26T11:52:53;156213.19;;;14.74;61.37
11888;BME280;6003;42.756;23.130;2023-04-26T11:55:28;156194.59;;;14.67;58.32
11888;BME280;6003;42.756;23.130;2023-04-26T11:57:56;156237.06;;;14.83;59.83
11888;BME280;6003;42.756;23.130;2023-04-26T12:00:24;156242.38;;;14.85;59.32
11888;BME280;6003;42.756;23.130;2023-04-26T12:02:51;156239.69;;;14.84;61.51
11888;BME280;6003;42.756;23.130;2023-04-26T12:05:23;156201.25;;;14.70;62.60
11888;BME280;6003;42.756;23.130;2023-04-26T12:07:51;156173.44;;;14.59;60.85
11888;BME280;6003;42.756;23.130;2023-04-26T12:10:19;156168.13;;;14.57;62.49
11888;BME280;6003;42.756;23.130;2023-04-26T12:12:48;156162.81;;;14.55;64.47
11888;BME280;6003;42.756;23.130;2023-04-26T12:15:16;156160.16;;;14.54;62.79
11888;BME280;6003;42.756;23.130;2023-04-26T12:17:54;156120.31;;;14.38;62.73
11888;BME280;6003;42.756;23.130;2023-04-26T12:20:29;156197.28;;;14.68;63.99
11888;BME280;6003;42.756;23.130;2023-04-26T12:23:06;156191.97;;;14.66;62.83
11888;BME280;6003;42.756;23.130;2023-04-26T12:25:35;156137.56;;;14.45;61.99
11888;BME280;6003;42.756;23.130;2023-04-26T12:28:05;156071.28;;;14.19;61.08
11888;BME280;6003;42.756;23.130;2023-04-26T12:30:36;156064.66;;;14.17;62.50
11888;BME280;6003;42.756;23.130;2023-04-26T12:33:04;156050.06;;;14.11;63.43
11888;BME280;6003;42.756;23.130;2023-04-26T12:35:31;156115.03;;;14.36;67.68
11888;BME280;6003;42.756;23.130;2023-04-26T12:37:59;156096.47;;;14.29;61.01
11888;BME280;6003;42.756;23.130;2023-04-26T12:40:27;156103.09;;;14.32;64.33
11888;BME280;6003;42.756;23.130;2023-04-26T12:42:54;156100.47;;;14.31;64.66
11888;BME280;6003;42.756;23.130;2023-04-26T12:45:23;156024.91;;;14.02;64.52
11888;BME280;6003;42.756;23.130;2023-04-26T12:47:51;155950.69;;;13.73;64.36
11888;BME280;6003;42.756;23.130;2023-04-26T12:50:18;155974.53;;;13.82;66.76
11888;BME280;6003;42.756;23.130;2023-04-26T12:52:46;155979.84;;;13.84;65.04
11888;BME280;6003;42.756;23.130;2023-04-26T12:55:14;155933.44;;;13.66;63.99
11888;BME280;6003;42.756;23.130;2023-04-26T12:57:42;155893.72;;;13.51;65.19
11888;BME280;6003;42.756;23.130;2023-04-26T13:00:11;155940.06;;;13.69;66.69
11888;BME280;6003;42.756;23.130;2023-04-26T13:02:40;155887.09;;;13.48;66.09